Time;durP1;ratioP1;P1;durP2;ratioP2;P2;SDS_P1;SDS_P2;PMS_P1;PMS_P2;Temp;Humidity;BMP_temperature;BMP_pressure;BME280_temperature;BME280_humidity;BME280_pressure;Samples;Min_cycle;Max_cycle;Signal;HPM_P1;HPM_P2
2022/08/11 00:00:42;;;;;;;4.10;2.30;;;;;;;14.69;70.60;97396.99;108533;1268;22545;-76
2022/08/11 00:03:15;;;;;;;6.40;2.60;;;;;;;14.63;70.99;97396.95;108444;1268;23683;-76
2022/08/11 00:05:50;;;;;;;3.90;2.70;;;;;;;14.58;71.08;97398.50;108387;1268;22605;-76
2022/08/11 00:08:27;;;;;;;4.20;2.60;;;;;;;14.46;71.27;97394.52;108413;1268;32574;-76
2022/08/11 00:11:00;;;;;;;3.10;2.40;;;;;;;14.40;71.44;97400.75;108556;1268;22556;-75
2022/08/11 00:13:37;;;;;;;5.10;2.60;;;;;;;14.39;71.52;97398.85;108506;1267;23680;-75
2022/08/11 00:16:15;;;;;;;5.60;2.90;;;;;;;14.39;71.61;97401.27;108431;1268;22564;-75
2022/08/11 00:18:49;;;;;;;3.30;2.60;;;;;;;14.47;71.69;97399.14;108444;1267;30346;-76
2022/08/11 00:21:23;;;;;;;4.30;2.60;;;;;;;14.58;71.68;97394.67;108511;1268;23427;-75
2022/08/11 00:23:58;;;;;;;5.90;2.90;;;;;;;14.58;71.36;97388.95;108523;1267;22658;-75
2022/08/11 00:26:31;;;;;;;3.30;2.80;;;;;;;14.33;71.46;97393.52;108426;1268;22659;-76
2022/08/11 00:29:10;;;;;;;4.50;2.80;;;;;;;14.10;72.05;97390.55;108342;1268;25374;-75
2022/08/11 00:31:46;;;;;;;4.30;2.40;;;;;;;13.91;72.82;97389.97;108400;1268;22598;-75
2022/08/11 00:34:21;;;;;;;3.70;2.70;;;;;;;13.87;73.24;97390.75;108545;1268;23275;-76
2022/08/11 00:36:54;;;;;;;3.90;2.90;;;;;;;13.93;73.43;97394.48;108508;1266;22678;-75
2022/08/11 00:39:27;;;;;;;3.80;2.90;;;;;;;14.04;73.57;97397.85;108357;1267;28489;-75
2022/08/11 00:42:16;;;;;;;4.30;2.70;;;;;;;14.15;73.32;97397.59;108545;1268;23915;-75
2022/08/11 00:45:03;;;;;;;6.50;3.00;;;;;;;14.15;73.18;97400.90;108502;1266;22542;-75
2022/08/11 00:47:50;;;;;;;5.40;2.90;;;;;;;14.18;73.28;97399.32;108527;1268;22544;-75
2022/08/11 00:50:40;;;;;;;6.40;3.10;;;;;;;14.22;73.06;97399.66;108556;1268;22552;-75
2022/08/11 00:53:32;;;;;;;4.50;2.90;;;;;;;14.10;73.09;97398.70;108426;1268;25271;-75
2022/08/11 00:56:48;;;;;;;3.20;2.70;;;;;;;14.04;73.44;97397.64;108421;1268;22538;-76
2022/08/11 01:00:03;;;;;;;6.00;2.70;;;;;;;13.92;73.71;97394.70;108358;1268;27552;-75
2022/08/11 01:03:01;;;;;;;5.00;2.80;;;;;;;13.82;73.81;97398.59;108398;1268;23765;-76
2022/08/11 01:05:56;;;;;;;3.30;2.50;;;;;;;13.87;74.21;97396.35;108432;1268;25253;-76
2022/08/11 01:09:08;;;;;;;3.60;3.10;;;;;;;13.95;74.14;97393.94;108330;1268;35506;-76
2022/08/11 01:12:28;;;;;;;5.30;2.90;;;;;;;13.93;74.27;97391.65;108435;1268;22566;-75
2022/08/11 01:15:32;;;;;;;5.30;3.00;;;;;;;13.89;74.33;97389.02;108420;1268;22618;-76
2022/08/11 01:18:42;;;;;;;5.60;3.10;;;;;;;13.84;74.45;97388.39;108351;1267;32438;-75
2022/08/11 01:21:47;;;;;;;4.30;2.90;;;;;;;13.81;74.65;97387.72;108413;1268;25283;-75
2022/08/11 01:24:51;;;;;;;4.10;2.90;;;;;;;13.79;74.79;97391.46;108411;1268;22535;-76
2022/08/11 01:27:47;;;;;;;11.50;3.50;;;;;;;13.85;74.72;97391.20;108347;1268;22648;-76
2022/08/11 01:30:57;;;;;;;5.20;3.00;;;;;;;13.93;74.57;97389.27;108419;1268;22659;-75
2022/08/11 01:34:10;;;;;;;4.30;3.00;;;;;;;14.02;74.39;97390.09;108397;1267;22527;-75
2022/08/11 01:37:12;;;;;;;4.40;2.90;;;;;;;14.06;74.22;97384.70;108188;1268;22535;-75
2022/08/11 01:40:13;;;;;;;3.90;2.70;;;;;;;14.04;73.91;97383.88;108344;1268;32412;-76
2022/08/11 01:46:04;;;;;;;4.20;2.80;;;;;;;13.63;74.53;97380.73;108434;1267;22552;-75
2022/08/11 01:48:42;;;;;;;3.20;2.60;;;;;;;13.46;75.08;97382.27;108367;1268;24543;-75
2022/08/11 01:51:38;;;;;;;5.80;3.10;;;;;;;13.39;75.60;97381.42;108392;1267;22464;-75
2022/08/11 01:54:21;;;;;;;4.10;2.90;;;;;;;13.31;76.03;97383.60;108436;1267;22973;-75
2022/08/11 01:57:11;;;;;;;4.50;2.70;;;;;;;13.33;76.45;97383.52;108417;1268;22564;-76
2022/08/11 01:59:48;;;;;;;5.60;2.70;;;;;;;13.40;76.39;97380.57;108306;1268;25952;-75
2022/08/11 02:02:52;;;;;;;5.20;2.80;;;;;;;13.48;76.55;97378.05;108413;1268;22559;-75
2022/08/11 02:05:59;;;;;;;3.50;2.90;;;;;;;13.62;76.55;97383.59;108343;1268;22559;-75
2022/08/11 02:08:47;;;;;;;5.30;2.70;;;;;;;13.79;76.51;97383.98;108386;1267;24783;-75
2022/08/11 02:11:30;;;;;;;7.20;3.10;;;;;;;13.93;76.34;97381.42;108411;1268;22612;-76
2022/08/11 02:14:12;;;;;;;3.30;2.80;;;;;;;13.88;75.87;97379.92;108416;1268;22668;-75
2022/08/11 02:16:53;;;;;;;5.40;2.90;;;;;;;13.69;75.93;97382.33;108433;1268;23855;-76
2022/08/11 02:25:36;;;;;;;5.00;2.90;;;;;;;13.39;77.10;97384.31;108424;1268;22557;-76
2022/08/11 02:28:12;;;;;;;5.80;3.00;;;;;;;13.38;77.33;97386.11;108379;1267;25961;-76
2022/08/11 02:33:21;;;;;;;5.90;3.30;;;;;;;13.40;77.56;97381.64;108397;1267;22702;-76
2022/08/11 02:33:55;;;;;;;5.90;3.40;;;;;;;13.48;77.81;97379.27;108410;1267;24168;-76
2022/08/11 02:36:37;;;;;;;4.00;3.00;;;;;;;13.55;77.73;97378.06;108422;1268;24363;-75
2022/08/11 02:39:12;;;;;;;4.70;3.10;;;;;;;13.52;77.88;97377.59;108351;1268;24643;-75
2022/08/11 02:45:02;;;;;;;4.10;3.20;;;;;;;13.55;78.21;97376.03;108432;1268;22540;-76
2022/08/11 02:49:52;;;;;;;4.10;3.20;;;;;;;13.55;77.99;97378.70;108359;1268;23018;-75
2022/08/11 02:50:48;;;;;;;5.70;3.20;;;;;;;13.53;78.12;97373.23;108410;1268;25246;-75
2022/08/11 02:53:30;;;;;;;4.10;2.90;;;;;;;13.48;78.29;97372.83;108502;1268;22690;-75
2022/08/11 02:56:08;;;;;;;4.80;3.10;;;;;;;13.50;78.33;97370.47;108541;1267;22552;-75
2022/08/11 02:59:49;;;;;;;4.80;3.30;;;;;;;13.49;78.29;97370.05;108468;1268;22810;-75
2022/08/11 03:01:49;;;;;;;6.00;3.00;;;;;;;13.46;78.50;97365.08;108412;1267;22738;-76
2022/08/11 03:04:30;;;;;;;5.10;2.80;;;;;;;13.51;78.50;97369.23;108390;1267;22913;-76
2022/08/11 03:07:15;;;;;;;5.60;3.30;;;;;;;13.45;78.80;97370.09;108525;1267;22537;-75
2022/08/11 03:09:54;;;;;;;5.10;3.40;;;;;;;13.45;78.99;97372.33;108315;1267;30611;-75
2022/08/11 03:18:25;;;;;;;8.70;3.40;;;;;;;13.66;78.92;97373.02;108404;1267;33426;-75
2022/08/11 03:21:07;;;;;;;5.90;3.00;;;;;;;13.78;78.97;97377.23;108353;1266;22649;-76
2022/08/11 03:23:45;;;;;;;5.80;3.10;;;;;;;13.88;78.91;97384.83;108485;1267;22596;-75
2022/08/11 03:26:30;;;;;;;4.80;3.20;;;;;;;13.98;78.87;97387.62;108500;1268;24316;-76
2022/08/11 03:29:11;;;;;;;4.30;2.70;;;;;;;14.04;78.60;97389.10;108400;1268;43856;-75
2022/08/11 03:31:53;;;;;;;5.20;3.00;;;;;;;14.09;78.43;97392.05;108415;1268;22713;-76
2022/08/11 03:34:28;;;;;;;6.10;3.50;;;;;;;14.14;78.33;97392.16;108498;1268;22474;-76
2022/08/11 03:41:41;;;;;;;6.40;3.40;;;;;;;14.22;78.15;97391.55;108419;1267;38451;-76
2022/08/11 03:43:24;;;;;;;4.40;3.20;;;;;;;14.28;77.98;97393.89;108464;1266;22651;-75
2022/08/11 03:46:04;;;;;;;4.90;3.40;;;;;;;14.38;78.00;97390.38;108408;1266;22532;-76
2022/08/11 03:48:49;;;;;;;4.90;3.30;;;;;;;14.47;77.88;97389.60;108419;1267;24744;-76
2022/08/11 03:51:33;;;;;;;5.40;3.60;;;;;;;14.57;77.71;97381.65;108464;1268;22552;-76
2022/08/11 03:54:20;;;;;;;4.30;3.20;;;;;;;14.63;77.46;97377.15;108404;1268;23228;-75
2022/08/11 03:57:40;;;;;;;5.20;3.30;;;;;;;14.58;77.28;97383.23;108467;1268;22531;-75
2022/08/11 04:00:29;;;;;;;3.90;3.50;;;;;;;14.47;77.31;97381.27;108495;1265;22615;-76
2022/08/11 04:03:25;;;;;;;6.00;3.00;;;;;;;14.52;77.60;97380.81;108410;1267;23140;-75
2022/08/11 04:06:49;;;;;;;7.60;3.50;;;;;;;14.48;77.96;97380.63;106594;1268;2370274;-75
2022/08/11 04:10:08;;;;;;;6.70;3.70;;;;;;;14.42;78.18;97380.83;108408;1267;25828;-76
2022/08/11 04:13:06;;;;;;;4.40;3.60;;;;;;;14.43;78.34;97382.54;108386;1267;22471;-75
2022/08/11 04:16:04;;;;;;;5.30;3.40;;;;;;;14.49;78.34;97374.27;108394;1265;22659;-75
2022/08/11 04:19:12;;;;;;;6.40;3.80;;;;;;;14.57;78.41;97374.92;108298;1268;33603;-75
2022/08/11 04:22:22;;;;;;;5.40;3.20;;;;;;;14.77;78.65;97374.79;108478;1268;22495;-75
2022/08/11 04:25:24;;;;;;;5.80;3.60;;;;;;;15.00;78.20;97375.04;108466;1267;22524;-75
2022/08/11 04:28:27;;;;;;;4.70;3.70;;;;;;;15.19;77.92;97372.75;108326;1268;39101;-76
2022/08/11 04:31:36;;;;;;;5.40;3.40;;;;;;;15.32;77.47;97374.69;108526;1268;23999;-76
2022/08/11 04:34:40;;;;;;;6.10;3.50;;;;;;;15.46;77.51;97373.63;108427;1268;22532;-75
2022/08/11 04:37:41;;;;;;;5.10;3.40;;;;;;;15.74;77.20;97376.17;108485;1268;22552;-75
2022/08/11 04:40:43;;;;;;;8.40;3.70;;;;;;;16.04;76.88;97376.57;108390;1268;22514;-76
2022/08/11 04:43:44;;;;;;;5.50;3.40;;;;;;;16.46;76.53;97377.35;108501;1265;23838;-76
2022/08/11 04:46:57;;;;;;;3.30;3.00;;;;;;;18.26;77.90;97380.73;108504;1267;22785;-76
2022/08/11 05:03:16;;;;;;;4.80;3.20;;;;;;;28.70;54.81;97376.39;108507;1268;25232;-75
2022/08/11 05:06:30;;;;;;;4.80;3.30;;;;;;;29.05;50.31;97381.16;108483;1267;22679;-76
2022/08/11 05:09:28;;;;;;;5.70;2.90;;;;;;;29.70;49.37;97385.44;108174;1268;34623;-76
2022/08/11 05:12:20;;;;;;;4.70;2.70;;;;;;;30.89;48.08;97387.36;108489;1268;23176;-76
2022/08/11 05:35:38;;;;;;;5.40;3.10;;;;;;;35.91;32.41;97400.88;108462;1267;25257;-76
2022/08/11 05:58:12;;;;;;;5.40;3.10;;;;;;;35.67;30.48;97411.44;108428;1267;24766;-76
2022/08/11 06:00:46;;;;;;;4.70;3.00;;;;;;;36.39;30.89;97410.41;108498;1265;23717;-76
2022/08/11 06:03:28;;;;;;;4.30;2.80;;;;;;;37.13;29.57;97410.66;108493;1268;24018;-77
2022/08/11 06:06:00;;;;;;;4.40;2.90;;;;;;;36.47;28.74;97412.27;108494;1267;22539;-77
2022/08/11 06:08:34;;;;;;;4.10;3.00;;;;;;;35.93;28.24;97413.52;108397;1268;30199;-77
2022/08/11 06:11:07;;;;;;;5.60;3.30;;;;;;;35.06;28.64;97414.99;108482;1268;22698;-77
2022/08/11 06:13:45;;;;;;;6.30;3.30;;;;;;;34.45;28.47;97416.82;108410;1268;22642;-77
2022/08/11 06:16:26;;;;;;;3.90;2.70;;;;;;;34.37;29.42;97412.94;108424;1267;25241;-77
2022/08/11 06:18:59;;;;;;;5.20;2.80;;;;;;;34.52;29.09;97415.09;108412;1267;33507;-77
2022/08/11 06:21:33;;;;;;;4.20;2.90;;;;;;;34.61;28.56;97413.77;108510;1267;22556;-77
2022/08/11 06:24:11;;;;;;;4.50;2.40;;;;;;;34.35;29.49;97414.20;108512;1268;22752;-77
2022/08/11 06:26:48;;;;;;;5.60;2.70;;;;;;;35.85;29.50;97413.56;108387;1267;25407;-77
2022/08/11 06:29:20;;;;;;;3.50;2.50;;;;;;;36.42;25.93;97416.53;108356;1267;24971;-77
2022/08/11 06:31:58;;;;;;;3.90;2.60;;;;;;;34.60;27.03;97417.92;108500;1267;24040;-77
2022/08/11 06:34:41;;;;;;;3.30;2.70;;;;;;;34.25;27.69;97416.39;108487;1267;22533;-77
2022/08/11 06:37:27;;;;;;;3.90;2.50;;;;;;;33.55;28.36;97413.95;108386;1267;22658;-77
2022/08/11 06:40:08;;;;;;;4.10;2.30;;;;;;;34.32;28.72;97413.15;108285;1267;37539;-77
2022/08/11 06:42:53;;;;;;;4.30;2.30;;;;;;;35.54;29.15;97413.31;108479;1267;24040;-77
2022/08/11 06:45:39;;;;;;;3.90;2.60;;;;;;;37.50;28.11;97413.63;108382;1267;25857;-77
2022/08/11 06:48:18;;;;;;;3.20;2.30;;;;;;;38.30;26.83;97408.34;108439;1268;25979;-77
2022/08/11 06:51:12;;;;;;;3.10;2.00;;;;;;;39.15;25.35;97411.41;108402;1267;23590;-77
2022/08/11 06:53:47;;;;;;;3.20;2.30;;;;;;;37.99;25.26;97405.23;108399;1267;22548;-77
2022/08/11 07:02:13;;;;;;;2.20;1.90;;;;;;;38.87;25.35;97407.73;108497;1268;22508;-77
2022/08/11 07:04:49;;;;;;;3.30;2.00;;;;;;;39.85;24.44;97404.71;108464;1267;22818;-77
2022/08/11 07:16:45;;;;;;;2.10;1.60;;;;;;;41.99;22.66;97395.71;108281;1267;24234;-78
2022/08/11 07:30:57;;;;;;;1.80;1.40;;;;;;;41.16;19.99;97397.63;108451;1267;24018;-77
2022/08/11 07:33:34;;;;;;;2.20;1.60;;;;;;;38.88;22.34;97399.27;108478;1268;22471;-77
2022/08/11 07:36:11;;;;;;;1.90;1.70;;;;;;;37.90;23.72;97399.17;108467;1267;22564;-78
2022/08/11 07:38:47;;;;;;;3.10;2.10;;;;;;;37.33;24.29;97401.17;108391;1267;24580;-77
2022/08/11 07:41:22;;;;;;;11.80;2.40;;;;;;;38.52;23.96;97403.59;108473;1267;22535;-77
2022/08/11 07:44:07;;;;;;;2.20;1.80;;;;;;;39.50;23.90;97401.10;108413;1267;22646;-77
2022/08/11 07:52:32;;;;;;;2.60;1.90;;;;;;;35.86;23.99;97409.14;108472;1266;22537;-78
2022/08/11 07:55:05;;;;;;;2.00;1.60;;;;;;;35.28;25.20;97408.62;108481;1267;23170;-77
2022/08/11 08:20:18;;;;;;;2.70;1.90;;;;;;;33.74;30.17;97401.34;108491;1268;23766;-78
2022/08/11 08:22:55;;;;;;;4.10;2.10;;;;;;;36.25;28.76;97395.10;108490;1267;22473;-78
2022/08/11 08:25:28;;;;;;;2.90;2.10;;;;;;;38.47;27.07;97392.02;108516;1267;23426;-78
2022/08/11 08:28:04;;;;;;;2.90;1.90;;;;;;;39.74;25.38;97396.77;108408;1268;33421;-78
2022/08/11 08:30:49;;;;;;;3.40;1.70;;;;;;;40.43;24.62;97391.06;108488;1266;22544;-79
2022/08/11 08:33:23;;;;;;;2.80;1.80;;;;;;;41.53;23.53;97393.16;108436;1268;22601;-78
2022/08/11 08:38:49;;;;;;;3.50;2.00;;;;;;;39.55;23.22;97396.91;108415;1268;30687;-77
2022/08/11 08:41:24;;;;;;;5.40;2.00;;;;;;;40.96;23.00;97386.02;108425;1268;23873;-78
2022/08/11 08:43:59;;;;;;;2.90;1.90;;;;;;;41.86;21.95;97388.51;108518;1268;22572;-78
2022/08/11 08:46:36;;;;;;;2.40;1.90;;;;;;;41.19;20.81;97386.09;108547;1267;23740;-77
2022/08/11 08:49:15;;;;;;;4.00;2.00;;;;;;;41.01;21.98;97383.15;108451;1266;29435;-77
2022/08/11 08:51:49;;;;;;;3.10;1.90;;;;;;;41.32;22.11;97378.71;108431;1268;22558;-77
2022/08/11 08:54:25;;;;;;;2.50;2.20;;;;;;;39.93;21.40;97374.11;108364;1268;22527;-77
2022/08/11 08:57:00;;;;;;;2.40;1.80;;;;;;;37.26;23.14;97372.83;108481;1267;25248;-77
2022/08/11 08:59:36;;;;;;;2.20;1.70;;;;;;;37.13;25.00;97369.41;108464;1267;27350;-77
2022/08/11 09:02:11;;;;;;;6.00;2.00;;;;;;;38.82;23.99;97366.52;108527;1268;22565;-78
2022/08/11 09:04:47;;;;;;;2.10;1.80;;;;;;;38.38;22.08;97364.73;108485;1267;22553;-77
2022/08/11 09:07:23;;;;;;;2.20;1.80;;;;;;;35.23;24.12;97362.68;108510;1267;22471;-77
2022/08/11 09:09:58;;;;;;;4.80;1.90;;;;;;;33.62;26.47;97361.39;108411;1267;26224;-77
2022/08/11 09:12:31;;;;;;;2.60;2.10;;;;;;;34.66;27.46;97363.88;108514;1268;22527;-77
2022/08/11 09:15:10;;;;;;;3.30;2.20;;;;;;;35.87;25.51;97359.33;108494;1268;22526;-76
2022/08/11 09:17:45;;;;;;;2.40;1.80;;;;;;;35.86;26.48;97357.52;108515;1267;22471;-77
2022/08/11 09:20:18;;;;;;;2.30;1.70;;;;;;;37.12;26.80;97356.34;108477;1267;23295;-77
2022/08/11 09:28:33;;;;;;;;;;;;;;;35.50;25.25;97345.77;108427;1268;41697;-77
2022/08/11 09:31:03;;;;;;;;;;;;;;;33.17;27.16;97341.22;108469;1267;22664;-77
2022/08/11 09:33:36;;;;;;;3.10;1.80;;;;;;;31.40;28.84;97342.16;108484;1266;25449;-76
2022/08/11 09:41:51;;;;;;;2.00;1.80;;;;;;;28.98;33.12;97338.15;108479;1268;25219;-77
2022/08/11 09:47:14;;;;;;;5.40;1.90;;;;;;;28.72;33.36;97332.48;108494;1267;22576;-77
2022/08/11 09:49:50;;;;;;;2.80;1.40;;;;;;;28.00;33.94;97327.80;108430;1268;28951;-77
2022/08/11 09:52:23;;;;;;;3.80;1.80;;;;;;;27.65;34.99;97325.11;108401;1267;22673;-77
2022/08/11 09:54:56;;;;;;;3.30;2.00;;;;;;;27.53;35.13;97328.83;108432;1268;23674;-76
2022/08/11 10:00:22;;;;;;;7.70;2.00;;;;;;;27.29;35.77;97329.41;108345;1267;25370;-76
2022/08/11 10:02:55;;;;;;;2.50;1.70;;;;;;;27.38;35.86;97324.85;108433;1267;22613;-76
2022/08/11 10:08:20;;;;;;;1.80;1.50;;;;;;;27.25;36.23;97324.52;108437;1267;32114;-76
2022/08/11 10:10:52;;;;;;;3.60;1.80;;;;;;;27.02;36.22;97319.39;108327;1268;23906;-76
2022/08/11 10:13:33;;;;;;;2.30;1.50;;;;;;;27.03;36.88;97316.77;108357;1268;22562;-76
2022/08/11 10:16:10;;;;;;;1.80;1.40;;;;;;;27.28;36.82;97313.75;108447;1267;24253;-76
2022/08/11 10:18:51;;;;;;;2.20;1.30;;;;;;;27.06;35.93;97312.54;108449;1266;39419;-77
2022/08/11 10:21:30;;;;;;;2.00;1.50;;;;;;;26.42;35.83;97309.94;108551;1268;22643;-76
2022/08/11 10:26:57;;;;;;;2.60;1.00;;;;;;;25.71;37.16;97306.84;108536;1267;25229;-76
2022/08/11 10:35:14;;;;;;;2.20;1.30;;;;;;;25.45;37.82;97300.88;108514;1268;24014;-77
2022/08/11 10:37:51;;;;;;;2.10;1.40;;;;;;;25.37;38.13;97296.54;108377;1267;31352;-76
2022/08/11 10:40:25;;;;;;;2.50;1.00;;;;;;;25.45;38.43;97294.81;108508;1267;22684;-76
2022/08/11 10:43:05;;;;;;;3.00;1.30;;;;;;;25.42;37.83;97293.21;108508;1267;22702;-77
2022/08/11 10:48:38;;;;;;;2.00;1.10;;;;;;;24.91;38.03;97286.79;108213;1267;58502;-76
2022/08/11 10:51:16;;;;;;;3.80;1.10;;;;;;;24.79;38.19;97278.88;108565;1268;24237;-76
2022/08/11 10:59:36;;;;;;;0.90;0.80;;;;;;;25.36;37.99;97262.46;108465;1268;42232;-77
2022/08/11 11:02:12;;;;;;;2.00;1.00;;;;;;;25.53;37.67;97255.73;108346;1269;23684;-77
2022/08/11 11:05:02;;;;;;;2.10;0.60;;;;;;;25.31;36.15;97258.88;108518;1267;22583;-77
2022/08/11 11:07:52;;;;;;;1.50;1.00;;;;;;;24.89;36.94;97257.68;108543;1267;22623;-76
2022/08/11 11:10:24;;;;;;;1.50;1.20;;;;;;;24.59;36.89;97255.95;108530;1267;22573;-77
2022/08/11 11:18:39;;;;;;;3.50;1.10;;;;;;;24.48;40.43;97244.94;108466;1268;35719;-76
2022/08/11 11:21:15;;;;;;;3.90;1.40;;;;;;;24.86;39.45;97239.02;108545;1267;23890;-77
2022/08/11 11:23:56;;;;;;;1.80;1.00;;;;;;;24.71;39.01;97242.03;108464;1267;22720;-76
2022/08/11 11:26:40;;;;;;;2.60;1.20;;;;;;;24.60;39.50;97243.55;108527;1267;22565;-76
2022/08/11 11:29:29;;;;;;;2.70;1.10;;;;;;;24.46;39.41;97239.39;108450;1266;28108;-77
2022/08/11 11:32:23;;;;;;;2.50;1.20;;;;;;;24.19;39.90;97241.23;108470;1267;22586;-77
2022/08/11 11:35:33;;;;;;;1.90;1.20;;;;;;;23.95;40.03;97245.52;108527;1267;22617;-76
2022/08/11 11:38:08;;;;;;;6.10;1.50;;;;;;;23.81;40.94;97240.06;108063;1271;24658;-76
2022/08/11 11:40:40;;;;;;;2.70;1.60;;;;;;;24.27;41.90;97242.27;108437;1267;22529;-77
2022/08/11 11:43:12;;;;;;;2.40;1.50;;;;;;;24.80;41.69;97240.73;108527;1267;25379;-77
2022/08/11 11:45:44;;;;;;;2.50;1.40;;;;;;;25.17;41.91;97238.98;108528;1268;22527;-77
2022/08/11 11:48:16;;;;;;;1.40;1.30;;;;;;;25.52;41.25;97234.29;108469;1268;28186;-77
2022/08/11 11:50:49;;;;;;;2.70;1.40;;;;;;;25.58;40.48;97227.81;108442;1267;24324;-77
2022/08/11 11:53:24;;;;;;;2.80;1.40;;;;;;;25.76;40.21;97221.86;108447;1267;23698;-76
2022/08/11 11:55:59;;;;;;;2.20;1.30;;;;;;;26.05;40.74;97218.15;108494;1267;22555;-77
2022/08/11 12:01:24;;;;;;;1.80;1.60;;;;;;;26.38;39.78;97206.71;108553;1267;22692;-76
2022/08/11 12:03:57;;;;;;;3.50;1.40;;;;;;;26.10;39.60;97208.67;108509;1267;22517;-76
2022/08/11 12:06:31;;;;;;;1.70;1.40;;;;;;;25.60;39.77;97207.83;108464;1268;25277;-76
2022/08/11 12:09:04;;;;;;;2.50;1.40;;;;;;;25.32;40.76;97215.23;108357;1267;26151;-76
2022/08/11 12:14:28;;;;;;;1.50;1.40;;;;;;;24.86;41.64;97225.85;108570;1268;22527;-77
2022/08/11 12:17:02;;;;;;;6.80;1.90;;;;;;;24.64;42.64;97226.39;108452;1268;24259;-76
2022/08/11 12:19:34;;;;;;;2.00;1.20;;;;;;;24.44;42.59;97228.64;108485;1267;30288;-76
2022/08/11 12:27:57;;;;;;;1.40;1.30;;;;;;;24.35;43.62;97237.81;107844;1271;30608;-76
2022/08/11 12:30:29;;;;;;;1.80;1.40;;;;;;;24.42;43.62;97239.98;108347;1268;24240;-77
2022/08/11 12:33:02;;;;;;;1.10;1.00;;;;;;;24.45;43.58;97237.44;108543;1268;25365;-76
2022/08/11 12:35:35;;;;;;;2.50;1.00;;;;;;;24.55;43.73;97234.26;108532;1268;22533;-77
2022/08/11 12:38:09;;;;;;;1.60;1.20;;;;;;;24.56;43.79;97233.89;108385;1268;26626;-77
2022/08/11 12:46:26;;;;;;;4.50;1.10;;;;;;;23.66;42.12;97272.58;108550;1268;24261;-78
2022/08/11 12:52:09;;;;;;;2.60;0.90;;;;;;;21.27;45.90;97270.23;108528;1268;25080;-78
2022/08/11 12:54:50;;;;;;;3.40;1.10;;;;;;;20.70;47.77;97268.63;108357;1271;22739;-78
2022/08/11 13:06:02;;;;;;;1.40;0.70;;;;;;;18.96;51.43;97281.71;108562;1268;24243;-77
2022/08/11 13:08:38;;;;;;;3.80;0.70;;;;;;;18.91;51.52;97283.95;108462;1268;26219;-77
2022/08/11 13:14:01;;;;;;;2.30;0.80;;;;;;;19.11;51.04;97279.27;108512;1268;23372;-78
2022/08/11 13:17:19;;;;;;;2.10;0.80;;;;;;;19.20;51.04;97283.02;108392;1268;24060;-77
2022/08/11 13:19:27;;;;;;;4.20;1.00;;;;;;;19.07;50.85;97277.83;108470;1267;26774;-77
2022/08/11 13:21:59;;;;;;;2.70;1.10;;;;;;;19.09;50.98;97274.16;108535;1268;22544;-77
2022/08/11 13:24:32;;;;;;;2.20;0.90;;;;;;;19.18;50.71;97269.48;108576;1268;22528;-78
2022/08/11 13:27:04;;;;;;;3.60;0.90;;;;;;;19.18;51.08;97269.16;108540;1268;22990;-78
2022/08/11 13:29:41;;;;;;;2.50;1.00;;;;;;;19.28;51.38;97260.90;108394;1268;30292;-77
2022/08/11 13:32:18;;;;;;;3.60;0.80;;;;;;;19.57;51.40;97257.33;108394;1268;22460;-77
2022/08/11 13:34:49;;;;;;;1.60;1.10;;;;;;;19.89;51.57;97255.67;108475;1268;22615;-77
2022/08/11 13:37:22;;;;;;;2.60;0.60;;;;;;;20.16;51.49;97252.74;108522;1266;22815;-77
2022/08/11 13:39:57;;;;;;;0.90;0.60;;;;;;;20.35;50.45;97248.81;108409;1267;39495;-77
2022/08/11 13:42:29;;;;;;;0.80;0.50;;;;;;;20.48;50.47;97248.17;108508;1268;22549;-77
2022/08/11 13:45:02;;;;;;;2.10;0.60;;;;;;;20.59;50.12;97248.33;108529;1267;24619;-77
2022/08/11 13:47:34;;;;;;;2.00;0.60;;;;;;;20.67;50.04;97245.86;108538;1267;22640;-77
2022/08/11 13:50:07;;;;;;;2.00;0.50;;;;;;;20.86;49.75;97242.21;108415;1268;31587;-77
2022/08/11 13:52:41;;;;;;;1.50;0.50;;;;;;;20.90;49.45;97236.08;108541;1268;23770;-77
2022/08/11 13:55:20;;;;;;;1.70;0.60;;;;;;;21.02;49.23;97229.74;108509;1268;22695;-77
2022/08/11 13:57:57;;;;;;;1.00;0.50;;;;;;;21.10;49.00;97231.00;108476;1268;29044;-77
2022/08/11 14:00:31;;;;;;;1.50;0.60;;;;;;;21.20;49.05;97225.96;108495;1268;22694;-77
2022/08/11 14:03:05;;;;;;;0.70;0.60;;;;;;;21.27;48.71;97224.46;108469;1268;22589;-77
2022/08/11 14:05:43;;;;;;;2.50;0.40;;;;;;;21.38;48.82;97224.48;108514;1267;22552;-77
2022/08/11 14:08:18;;;;;;;1.30;0.50;;;;;;;21.52;47.94;97218.77;108452;1268;51224;-77
2022/08/11 14:13:36;;;;;;;1.30;0.50;;;;;;;21.29;47.28;97221.77;108535;1268;22631;-77
2022/08/11 14:13:45;;;;;;;1.80;0.70;;;;;;;21.28;48.24;97221.27;108496;1268;22554;-77
2022/08/11 14:16:20;;;;;;;1.20;0.50;;;;;;;21.52;48.55;97222.64;108479;1268;22555;-78
2022/08/11 14:18:57;;;;;;;1.30;0.50;;;;;;;21.72;48.04;97221.92;108430;1268;26481;-77
2022/08/11 14:24:22;;;;;;;1.10;0.60;;;;;;;21.84;47.99;97221.54;108488;1268;22527;-78
2022/08/11 14:26:54;;;;;;;1.70;0.50;;;;;;;22.05;46.50;97226.61;108524;1268;22649;-78
2022/08/11 14:29:28;;;;;;;1.10;0.40;;;;;;;21.90;45.93;97226.70;108389;1268;38660;-78
2022/08/11 14:32:02;;;;;;;1.20;0.70;;;;;;;21.83;46.86;97226.30;108488;1268;22560;-77
2022/08/11 14:34:36;;;;;;;1.10;0.70;;;;;;;21.69;46.18;97229.22;108490;1268;23588;-78
2022/08/11 14:37:10;;;;;;;1.30;0.80;;;;;;;21.28;46.61;97230.59;108426;1268;22564;-77
2022/08/11 14:39:45;;;;;;;1.20;0.70;;;;;;;21.26;47.43;97233.47;108448;1268;24113;-77
2022/08/11 14:48:11;;;;;;;1.80;0.80;;;;;;;21.43;47.99;97227.10;108441;1268;27308;-78
2022/08/11 14:50:44;;;;;;;4.90;1.10;;;;;;;21.32;46.42;97219.86;108479;1268;22583;-78
2022/08/11 14:53:16;;;;;;;1.70;1.10;;;;;;;21.07;47.12;97223.57;108522;1268;22579;-77
2022/08/11 14:58:42;;;;;;;1.50;0.90;;;;;;;21.26;47.10;97217.09;108423;1267;35636;-77
2022/08/11 15:04:03;;;;;;;3.20;1.00;;;;;;;21.25;46.78;97207.52;108478;1267;22641;-77
2022/08/11 15:06:35;;;;;;;2.00;0.90;;;;;;;21.09;46.57;97207.70;108440;1268;22547;-78
2022/08/11 15:09:07;;;;;;;1.40;0.80;;;;;;;20.91;46.91;97204.20;108427;1268;31210;-78
2022/08/11 15:17:24;;;;;;;2.10;0.50;;;;;;;21.27;48.16;97192.52;108477;1267;22991;-78
2022/08/11 15:25:35;;;;;;;1.70;0.70;;;;;;;21.57;47.32;97188.43;108488;1268;22527;-77
2022/08/11 15:45:46;;;;;;;0.90;0.40;;;;;;;22.03;47.17;97202.40;108439;1268;22661;-77
2022/08/11 15:45:52;;;;;;;1.60;0.50;;;;;;;22.46;46.30;97205.13;108488;1267;22644;-77
2022/08/11 15:48:39;;;;;;;1.50;0.50;;;;;;;22.78;46.20;97202.70;108453;1268;23525;-77
2022/08/11 15:51:21;;;;;;;0.80;0.60;;;;;;;23.20;46.08;97205.03;108549;1265;24226;-77
2022/08/11 15:53:58;;;;;;;1.70;0.40;;;;;;;24.13;45.08;97206.02;108430;1267;22483;-77
2022/08/11 15:56:32;;;;;;;0.80;0.50;;;;;;;24.87;43.99;97205.48;108439;1268;23717;-77
2022/08/11 16:05:02;;;;;;;1.00;0.50;;;;;;;27.02;40.66;97200.65;108507;1268;22511;-78
2022/08/11 16:07:37;;;;;;;0.80;0.50;;;;;;;27.25;39.94;97198.04;107539;1268;1307097;-78
2022/08/11 16:10:20;;;;;;;1.30;0.50;;;;;;;27.20;39.32;97191.39;108427;1268;23800;-78
2022/08/11 16:16:13;;;;;;;1.00;0.50;;;;;;;26.50;39.08;97188.63;108514;1267;23703;-78
2022/08/11 16:16:15;;;;;;;1.80;0.80;;;;;;;25.74;39.73;97179.91;108482;1268;25370;-78
2022/08/11 16:18:52;;;;;;;1.90;0.60;;;;;;;25.21;39.92;97176.86;108423;1267;32113;-77
2022/08/11 16:21:27;;;;;;;1.00;0.90;;;;;;;25.12;40.46;97176.26;108498;1268;22539;-77
2022/08/11 16:24:01;;;;;;;1.40;0.70;;;;;;;25.24;41.06;97169.41;108495;1267;23282;-77
2022/08/11 16:26:35;;;;;;;0.70;0.60;;;;;;;25.40;40.67;97170.02;108498;1268;22637;-78
2022/08/11 16:29:08;;;;;;;2.60;0.80;;;;;;;25.30;40.48;97171.62;108438;1268;32396;-77
2022/08/11 16:31:43;;;;;;;1.60;0.60;;;;;;;25.07;40.52;97177.84;108492;1268;22762;-77
2022/08/11 16:39:52;;;;;;;1.50;1.00;;;;;;;24.66;41.02;97193.21;108356;1268;37596;-77
2022/08/11 16:48:06;;;;;;;1.50;0.40;;;;;;;24.74;40.63;97185.70;108423;1268;26494;-77
2022/08/11 16:50:40;;;;;;;1.30;0.60;;;;;;;24.28;40.59;97185.46;108533;1268;22580;-77
2022/08/11 16:53:12;;;;;;;3.20;0.70;;;;;;;23.80;41.15;97182.30;108539;1268;22520;-77
2022/08/11 16:55:45;;;;;;;1.40;0.50;;;;;;;23.29;41.63;97185.11;108504;1268;22551;-77
2022/08/11 17:01:09;;;;;;;3.00;1.00;;;;;;;22.60;43.30;97184.00;108494;1268;23369;-77